createdAt,value
2023-04-18T00:00:18.514Z,50.8
2023-04-18T00:01:34.805Z,57.6
2023-04-18T00:02:51.105Z,53.1
2023-04-18T00:04:06.416Z,52.2
2023-04-18T00:05:22.718Z,55
2023-04-18T00:06:39.005Z,57
2023-04-18T00:07:55.299Z,54.8
2023-04-18T00:09:11.590Z,58.8
2023-04-18T00:10:27.891Z,58.1
2023-04-18T00:11:44.193Z,59
2023-04-18T00:13:00.477Z,60.9
2023-04-18T00:14:15.792Z,58.8
2023-04-18T00:15:32.088Z,62.6
2023-04-18T00:16:47.410Z,65.4
2023-04-18T00:18:03.706Z,66.1
2023-04-18T00:19:19.985Z,66.1
2023-04-18T00:20:36.274Z,65.8
2023-04-18T00:21:52.576Z,62.1
2023-04-18T00:23:08.871Z,67
2023-04-18T00:24:25.165Z,64.7
2023-04-18T00:25:41.000Z,65.6
2023-04-18T00:26:57.760Z,70.7
2023-04-18T00:28:14.040Z,69.9
2023-04-18T00:29:30.343Z,73.5
2023-04-18T00:30:46.634Z,78
2023-04-18T00:32:02.934Z,75.3
2023-04-18T00:33:18.245Z,84.8
2023-04-18T00:34:34.536Z,98.5
2023-04-18T00:35:50.844Z,97.7
2023-04-18T00:37:07.138Z,120.8
2023-04-18T00:38:23.428Z,129.9
2023-04-18T00:39:39.714Z,119.6
2023-04-18T00:40:56.014Z,128.7
2023-04-18T00:42:12.304Z,158.6
2023-04-18T00:43:28.603Z,136.4
2023-04-18T00:44:44.896Z,125
2023-04-18T00:46:01.193Z,151
2023-04-18T00:47:17.475Z,180.9
2023-04-18T00:48:33.785Z,178.9
2023-04-18T00:49:49.096Z,194.2
2023-04-18T00:51:05.392Z,211.2
2023-04-18T00:52:21.689Z,168.1
2023-04-18T00:53:37.982Z,213.8
2023-04-18T00:54:54.276Z,223.1
2023-04-18T00:56:10.555Z,186.4
2023-04-18T00:57:26.862Z,207.7
2023-04-18T00:58:43.153Z,197.8
2023-04-18T01:01:15.738Z,205.4
2023-04-18T01:02:32.043Z,193.2
2023-04-18T01:03:48.330Z,200.3
2023-04-18T01:05:04.627Z,202.6
2023-04-18T01:06:19.935Z,169.5
2023-04-18T01:08:52.514Z,139.1
2023-04-18T01:10:08.806Z,149.1
2023-04-18T01:11:25.098Z,135
2023-04-18T01:12:41.394Z,133.3
2023-04-18T01:13:57.700Z,104.6
2023-04-18T01:15:13.991Z,98.6
2023-04-18T01:16:30.279Z,110
2023-04-18T01:19:02.868Z,94
2023-04-18T01:20:18.181Z,93.1
2023-04-18T01:21:34.491Z,88.4
2023-04-18T01:22:49.783Z,92.8
2023-04-18T01:24:06.089Z,88.8
2023-04-18T01:25:22.370Z,83
2023-04-18T01:26:38.670Z,82.1
2023-04-18T01:27:54.980Z,84.2
2023-04-18T01:29:11.272Z,75.6
2023-04-18T01:30:27.565Z,79.2
2023-04-18T01:31:43.852Z,77.5
2023-04-18T01:34:16.446Z,69.4
2023-04-18T01:35:32.725Z,68.5
2023-04-18T01:36:49.025Z,70.8
2023-04-18T01:38:05.329Z,65.5
2023-04-18T01:39:21.618Z,64.9
2023-04-18T01:40:36.938Z,64.2
2023-04-18T01:41:53.228Z,63.5
2023-04-18T01:43:09.513Z,61
2023-04-18T01:44:25.818Z,59.3
2023-04-18T01:46:58.393Z,56.6
2023-04-18T01:48:14.701Z,58.5
2023-04-18T01:49:30.983Z,58.4
2023-04-18T01:52:03.582Z,52.9
2023-04-18T01:53:18.900Z,55.5
2023-04-18T01:54:35.186Z,57.8
2023-04-18T01:55:50.504Z,51.7
2023-04-18T01:57:06.799Z,51.5
2023-04-18T01:58:23.093Z,55.1
2023-04-18T01:59:39.380Z,50.9
2023-04-18T02:00:55.683Z,50
2023-04-18T02:02:11.969Z,48.9
2023-04-18T02:03:28.269Z,49.5
2023-04-18T02:04:44.553Z,50
2023-04-18T02:06:00.844Z,50.7
2023-04-18T02:07:17.144Z,50.6
2023-04-18T02:08:32.461Z,50.6
2023-04-18T02:11:05.126Z,51.1
2023-04-18T02:12:21.415Z,50.2
2023-04-18T02:14:53.033Z,47.7
2023-04-18T02:16:09.323Z,51.4
2023-04-18T02:17:25.604Z,50.2
2023-04-18T02:18:41.906Z,50.4
2023-04-18T02:19:58.199Z,50.7
2023-04-18T02:21:14.484Z,48.6
2023-04-18T02:22:30.786Z,50.7
2023-04-18T02:23:47.077Z,54.7
2023-04-18T02:25:03.384Z,52.7
2023-04-18T02:26:19.663Z,51.7
2023-04-18T02:27:35.965Z,52.2
2023-04-18T02:28:52.260Z,51.9
2023-04-18T02:30:08.558Z,49.8
2023-04-18T02:32:40.160Z,52.2
2023-04-18T02:35:12.741Z,52.2
2023-04-18T02:36:28.066Z,49.4
2023-04-18T02:37:44.350Z,48.7
2023-04-18T02:40:15.947Z,47.7
2023-04-18T02:41:32.241Z,52.3
2023-04-18T02:42:48.546Z,50.9
2023-04-18T02:44:04.841Z,48.7
2023-04-18T02:45:21.123Z,48.4
2023-04-18T02:46:37.421Z,50.7
2023-04-18T02:47:53.727Z,49.4
2023-04-18T02:49:10.024Z,51.4
2023-04-18T02:50:26.304Z,49.5
2023-04-18T02:51:42.613Z,48.9
2023-04-18T02:52:58.899Z,49.6
2023-04-18T02:55:31.496Z,46.1
2023-04-18T02:56:46.785Z,48
2023-04-18T02:58:03.088Z,50.1
2023-04-18T03:00:35.686Z,46.7
2023-04-18T03:01:51.962Z,47.1
2023-04-18T03:03:08.260Z,47.3
2023-04-18T03:04:24.568Z,46.6
2023-04-18T03:05:40.856Z,46.9
2023-04-18T03:08:13.442Z,45.5
2023-04-18T03:09:29.728Z,46.5
2023-04-18T03:10:46.024Z,45.5
2023-04-18T03:12:02.334Z,47.2
2023-04-18T03:13:17.644Z,47
2023-04-18T03:14:33.930Z,48.9
2023-04-18T03:15:50.218Z,45.2
2023-04-18T03:17:06.515Z,48
2023-04-18T03:18:22.816Z,44.7
2023-04-18T03:19:39.109Z,43.8
2023-04-18T03:20:55.405Z,44.7
2023-04-18T03:22:11.691Z,42.3
2023-04-18T03:23:27.992Z,44.8
2023-04-18T03:26:00.574Z,41.6
2023-04-18T03:27:16.861Z,42.5
2023-04-18T03:28:33.156Z,43
2023-04-18T03:29:48.478Z,41.5
2023-04-18T03:31:04.772Z,43.8
2023-04-18T03:32:21.060Z,40.4
2023-04-18T03:33:37.345Z,42.3
2023-04-18T03:34:52.678Z,41.4
2023-04-18T03:36:08.960Z,39.3
2023-04-18T03:37:24.267Z,38.9
2023-04-18T03:38:40.561Z,38.7
2023-04-18T03:41:13.000Z,39.7
2023-04-18T03:42:29.347Z,38.9
2023-04-18T03:43:45.597Z,40.5
2023-04-18T03:45:01.826Z,38
2023-04-18T03:46:18.076Z,37.8
2023-04-18T03:47:34.325Z,39.5
2023-04-18T03:48:50.574Z,39.2
2023-04-18T03:50:06.798Z,40.1
2023-04-18T03:51:23.068Z,38.1
2023-04-18T03:52:39.299Z,37.1
2023-04-18T03:53:54.553Z,38.2
2023-04-18T03:55:10.792Z,38.4
2023-04-18T03:56:27.030Z,38.5
2023-04-18T03:57:43.276Z,34.4
2023-04-18T03:58:59.515Z,35.5
2023-04-18T04:00:15.760Z,35.1
2023-04-18T04:01:31.991Z,37.6
2023-04-18T04:04:03.499Z,34.9
2023-04-18T04:06:34.991Z,33.8
2023-04-18T04:09:06.501Z,32.2
2023-04-18T04:10:21.769Z,33.9
2023-04-18T04:11:37.999Z,33.6
2023-04-18T04:12:53.264Z,35.3
2023-04-18T04:14:09.496Z,33.5
2023-04-18T04:16:41.990Z,33
2023-04-18T04:17:58.226Z,33.3
2023-04-18T04:19:14.468Z,33.6
2023-04-18T04:20:30.693Z,33.3
2023-04-18T04:21:46.944Z,34.2
2023-04-18T04:23:03.186Z,31.1
2023-04-18T04:24:19.428Z,34.1
2023-04-18T04:26:51.897Z,31
2023-04-18T04:28:08.148Z,33.4
2023-04-18T04:29:24.381Z,32.8
2023-04-18T04:30:39.647Z,33
2023-04-18T04:31:55.879Z,32.2
2023-04-18T04:34:28.353Z,32.9
2023-04-18T04:35:44.608Z,31.7
2023-04-18T04:37:00.836Z,33.4
2023-04-18T04:38:17.072Z,30.8
2023-04-18T04:39:33.322Z,33
2023-04-18T04:40:49.554Z,32.4
2023-04-18T04:42:05.800Z,32.6
2023-04-18T04:43:22.043Z,29.7
2023-04-18T04:44:38.277Z,29.9
2023-04-18T04:45:54.517Z,28.8
2023-04-18T04:47:10.755Z,29.5
2023-04-18T04:48:26.024Z,27.3
2023-04-18T04:49:42.264Z,28.5
2023-04-18T04:50:58.491Z,28.8
2023-04-18T04:52:14.734Z,30
2023-04-18T04:53:30.008Z,28.6
2023-04-18T04:54:46.233Z,28.3
2023-04-18T04:57:17.730Z,27.8
2023-04-18T04:58:33.990Z,28.4
2023-04-18T04:59:50.216Z,26.3
2023-04-18T05:01:06.465Z,26.2
2023-04-18T05:02:22.701Z,26.8
2023-04-18T05:03:38.934Z,28.1
2023-04-18T05:04:55.184Z,26.1
2023-04-18T05:06:10.439Z,26.1
2023-04-18T05:07:26.683Z,25.3
2023-04-18T05:08:42.924Z,24.4
2023-04-18T05:09:59.175Z,27.2
2023-04-18T05:11:15.411Z,26.3
2023-04-18T05:12:31.636Z,24.1
2023-04-18T05:13:47.877Z,25.4
2023-04-18T05:15:04.134Z,25.4
2023-04-18T05:16:20.364Z,27.5
2023-04-18T05:17:36.607Z,27
2023-04-18T05:20:09.098Z,27.3
2023-04-18T05:21:25.326Z,26.3
2023-04-18T05:22:41.563Z,27.5
2023-04-18T05:25:13.063Z,26.9
2023-04-18T05:27:44.572Z,25.3
2023-04-18T05:28:59.838Z,26.6
2023-04-18T05:30:15.077Z,25.8
2023-04-18T05:31:31.332Z,27.1
2023-04-18T05:32:47.567Z,25.8
2023-04-18T05:34:03.811Z,25.1
2023-04-18T05:35:20.045Z,25.9
2023-04-18T05:36:36.293Z,25
2023-04-18T05:37:52.535Z,25.1
2023-04-18T05:39:08.782Z,23.9
2023-04-18T05:40:25.013Z,24.5
2023-04-18T05:42:57.492Z,25.7
2023-04-18T05:44:13.732Z,24.7
2023-04-18T05:45:29.969Z,24.9
2023-04-18T05:46:45.222Z,25.5
2023-04-18T05:48:01.470Z,25.1
2023-04-18T05:49:17.704Z,26.9
2023-04-18T05:50:33.955Z,25.5
2023-04-18T05:51:50.198Z,26.8
2023-04-18T05:53:06.437Z,25.5
2023-04-18T05:54:22.678Z,26
2023-04-18T05:55:38.914Z,27
2023-04-18T05:58:10.402Z,29
2023-04-18T05:59:25.675Z,26.6
2023-04-18T06:00:41.902Z,25.6
2023-04-18T06:01:58.146Z,27.9
2023-04-18T06:03:14.392Z,28.2
2023-04-18T06:04:30.633Z,27.3
2023-04-18T06:05:46.864Z,27.3
2023-04-18T06:07:03.101Z,27.9
2023-04-18T06:08:19.348Z,26.7
2023-04-18T06:09:34.619Z,24.4
2023-04-18T06:10:49.870Z,25.3
2023-04-18T06:13:22.344Z,23.4
2023-04-18T06:14:38.588Z,23.8
2023-04-18T06:15:54.821Z,23.5
2023-04-18T06:17:11.062Z,23
2023-04-18T06:18:27.321Z,22.7
2023-04-18T06:20:59.791Z,22.4
2023-04-18T06:22:16.028Z,21.2
2023-04-18T06:23:32.280Z,21
2023-04-18T06:24:48.522Z,23.3
2023-04-18T06:26:03.784Z,22
2023-04-18T06:28:35.280Z,22.4
2023-04-18T06:29:51.522Z,20.9
2023-04-18T06:31:07.743Z,21.7
2023-04-18T06:32:23.986Z,21.9
2023-04-18T06:33:40.225Z,22.6
2023-04-18T06:36:12.707Z,22
2023-04-18T06:37:28.963Z,22.2
2023-04-18T06:38:45.206Z,23.2
2023-04-18T06:40:01.436Z,24.1
2023-04-18T06:41:17.676Z,23.2
2023-04-18T06:42:33.916Z,24
2023-04-18T06:43:50.153Z,24.9
2023-04-18T06:45:05.417Z,24.2
2023-04-18T06:46:21.653Z,23.4
2023-04-18T06:47:37.902Z,23.9
2023-04-18T06:50:10.370Z,24
2023-04-18T06:51:26.608Z,24.6
2023-04-18T06:52:42.860Z,25.2
2023-04-18T06:53:59.096Z,25.4
2023-04-18T06:55:15.336Z,25.6
2023-04-18T06:56:31.574Z,24
2023-04-18T06:57:47.804Z,23.1
2023-04-18T06:59:04.050Z,23.4
2023-04-18T07:00:20.298Z,23.9
2023-04-18T07:01:36.662Z,24.5
2023-04-18T07:02:51.907Z,22.8
2023-04-18T07:04:07.180Z,24.9
2023-04-18T07:06:39.652Z,23.9
2023-04-18T07:07:55.892Z,22.4
2023-04-18T07:09:12.126Z,22.4
2023-04-18T07:10:28.371Z,22.2
2023-04-18T07:11:44.608Z,22.4
2023-04-18T07:13:00.845Z,22.4
2023-04-18T07:14:17.103Z,21.5
2023-04-18T07:15:33.346Z,20.9
2023-04-18T07:16:49.571Z,21.7
2023-04-18T07:18:05.801Z,20.9
2023-04-18T07:19:22.043Z,21.3
2023-04-18T07:21:53.537Z,21.4
2023-04-18T07:23:08.801Z,20.7
2023-04-18T07:24:24.061Z,21.5
2023-04-18T07:25:40.295Z,21
2023-04-18T07:26:56.549Z,21.2
2023-04-18T07:29:29.031Z,22.1
2023-04-18T07:30:45.261Z,21.5
2023-04-18T07:32:01.508Z,21.3
2023-04-18T07:33:17.747Z,20.8
2023-04-18T07:34:33.986Z,20.2
2023-04-18T07:35:50.220Z,21.8
2023-04-18T07:37:06.457Z,19.9
2023-04-18T07:38:22.707Z,20
2023-04-18T07:39:38.946Z,21.7
2023-04-18T07:40:54.198Z,21.1
2023-04-18T07:42:10.437Z,22.5
2023-04-18T07:44:42.929Z,20.4
2023-04-18T07:45:59.151Z,20.7
2023-04-18T07:47:15.402Z,19.4
2023-04-18T07:48:31.631Z,20.6
2023-04-18T07:49:47.875Z,21.4
2023-04-18T07:51:04.112Z,20
2023-04-18T07:52:20.353Z,20.5
2023-04-18T07:53:36.600Z,20.9
2023-04-18T07:54:52.842Z,20.1
2023-04-18T07:56:08.101Z,19.2
2023-04-18T07:57:24.334Z,20.5
2023-04-18T07:58:39.607Z,21.9
2023-04-18T07:59:55.834Z,21.2
2023-04-18T08:01:12.070Z,20.3
2023-04-18T08:02:28.319Z,20
2023-04-18T08:03:44.569Z,19.8
2023-04-18T08:05:00.799Z,21.1
2023-04-18T08:06:17.045Z,20.8
2023-04-18T08:07:33.289Z,21.3
2023-04-18T08:08:49.508Z,19.3
2023-04-18T08:10:05.754Z,20.4
2023-04-18T08:11:21.018Z,19.9
2023-04-18T08:12:36.280Z,20.5
2023-04-18T08:13:52.524Z,20.7
2023-04-18T08:15:08.763Z,20.8
2023-04-18T08:16:24.991Z,21.5
2023-04-18T08:17:41.238Z,19.9
2023-04-18T08:18:57.483Z,19.6
2023-04-18T08:20:13.707Z,20.4
2023-04-18T08:21:29.967Z,20.4
2023-04-18T08:22:46.194Z,20.3
2023-04-18T08:24:02.440Z,19.2
2023-04-18T08:25:18.679Z,19.8
2023-04-18T08:26:34.916Z,19.3
2023-04-18T08:27:51.156Z,20.6
2023-04-18T08:30:22.662Z,19.8
2023-04-18T08:31:38.902Z,20.8
2023-04-18T08:32:55.138Z,19.9
2023-04-18T08:34:11.371Z,19.7
2023-04-18T08:35:27.621Z,19.8
2023-04-18T08:36:43.849Z,18.3
2023-04-18T08:38:00.093Z,19.1
2023-04-18T08:39:16.327Z,20.2
2023-04-18T08:40:32.578Z,20.3
2023-04-18T08:41:48.810Z,18.8
2023-04-18T08:43:05.052Z,20
2023-04-18T08:44:21.297Z,20.1
2023-04-18T08:45:37.532Z,20.6
2023-04-18T08:46:52.793Z,20
2023-04-18T08:48:09.020Z,19.4
2023-04-18T08:49:25.262Z,19.8
2023-04-18T08:50:41.500Z,20
2023-04-18T08:51:57.749Z,19.7
2023-04-18T08:53:13.977Z,19.6
2023-04-18T08:54:30.234Z,20.3
2023-04-18T08:55:46.478Z,19.9
2023-04-18T08:57:02.715Z,19.1
2023-04-18T08:58:18.955Z,19.3
2023-04-18T08:59:35.197Z,19.9
2023-04-18T09:00:51.424Z,20
2023-04-18T09:02:07.670Z,19.9
2023-04-18T09:03:22.930Z,20
2023-04-18T09:04:39.153Z,19.7
2023-04-18T09:05:55.414Z,20.2
2023-04-18T09:07:11.638Z,20.5
2023-04-18T09:08:27.888Z,19.8
2023-04-18T09:09:44.118Z,21.6
2023-04-18T09:11:00.363Z,19.8
2023-04-18T09:12:16.596Z,19.5
2023-04-18T09:13:32.842Z,20
2023-04-18T09:16:05.326Z,20.3
2023-04-18T09:17:21.556Z,20.2
2023-04-18T09:18:37.805Z,22.6
2023-04-18T09:19:53.056Z,19.5
2023-04-18T09:21:08.327Z,18.4
2023-04-18T09:22:24.570Z,21
2023-04-18T09:23:40.804Z,21
2023-04-18T09:24:57.038Z,21.1
2023-04-18T09:26:13.285Z,20.8
2023-04-18T09:27:29.511Z,19.3
2023-04-18T09:28:45.755Z,20.7
2023-04-18T09:30:01.994Z,20.8
2023-04-18T09:31:18.243Z,20.7
2023-04-18T09:32:34.469Z,20.1
2023-04-18T09:33:50.722Z,20.2
2023-04-18T09:35:06.953Z,19.6
2023-04-18T09:36:23.190Z,20.4
2023-04-18T09:38:54.698Z,21.3
2023-04-18T09:40:10.932Z,20.5
2023-04-18T09:41:27.183Z,20.5
2023-04-18T09:42:43.412Z,21
2023-04-18T09:43:59.665Z,22
2023-04-18T09:45:15.895Z,19.8
2023-04-18T09:46:32.144Z,20.9
2023-04-18T09:47:48.370Z,21.3
2023-04-18T09:49:04.624Z,22.2
2023-04-18T09:50:20.860Z,21.8
2023-04-18T09:51:37.103Z,21.8
2023-04-18T09:54:09.570Z,22.3
2023-04-18T09:55:24.840Z,21.6
2023-04-18T09:56:41.076Z,23.7
2023-04-18T09:57:57.308Z,21.3
2023-04-18T09:59:13.547Z,21.6
2023-04-18T10:01:46.021Z,22.4
2023-04-18T10:04:17.540Z,21.9
2023-04-18T10:05:33.764Z,23.3
2023-04-18T10:06:49.036Z,22.1
2023-04-18T10:08:04.285Z,24
2023-04-18T10:09:20.535Z,22.8
2023-04-18T10:10:36.762Z,24.3
2023-04-18T10:11:53.012Z,22.6
2023-04-18T10:13:09.246Z,23.5
2023-04-18T10:14:25.497Z,23.3
2023-04-18T10:16:57.974Z,21.3
2023-04-18T10:18:14.210Z,22.3
2023-04-18T10:19:30.449Z,21.7
2023-04-18T10:20:46.683Z,22.3
2023-04-18T10:22:02.932Z,22.7
2023-04-18T10:23:19.162Z,21.7
2023-04-18T10:24:35.527Z,23.5
2023-04-18T10:25:51.778Z,20.6
2023-04-18T10:27:08.004Z,22.6
2023-04-18T10:28:24.250Z,21.6
2023-04-18T10:29:40.501Z,22
2023-04-18T10:32:12.967Z,22.4
2023-04-18T10:33:28.229Z,23.2
2023-04-18T10:34:43.489Z,21
2023-04-18T10:35:59.722Z,22.4
2023-04-18T10:37:15.960Z,23.5
2023-04-18T10:39:48.443Z,25.1
2023-04-18T10:41:04.700Z,23.3
2023-04-18T10:42:20.929Z,25.1
2023-04-18T10:43:37.164Z,26
2023-04-18T10:44:53.409Z,25
2023-04-18T10:47:25.887Z,25.2
2023-04-18T10:48:42.136Z,23.7
2023-04-18T10:49:58.372Z,26.2
2023-04-18T10:51:13.628Z,21.6
2023-04-18T10:52:29.871Z,22
2023-04-18T10:53:46.098Z,22.5
2023-04-18T10:55:02.350Z,24.1
2023-04-18T10:56:18.593Z,24.1
2023-04-18T10:57:34.815Z,23.7
2023-04-18T10:58:51.070Z,23.6
2023-04-18T11:00:07.312Z,24.4
2023-04-18T11:02:39.776Z,23.4
2023-04-18T11:03:56.023Z,23
2023-04-18T11:05:12.269Z,22.5
2023-04-18T11:06:28.508Z,22.7
2023-04-18T11:07:43.767Z,22.6
2023-04-18T11:10:16.250Z,23.1
2023-04-18T11:11:32.477Z,20.5
2023-04-18T11:12:48.718Z,24
2023-04-18T11:14:04.961Z,20.9
2023-04-18T11:15:21.206Z,22.3
2023-04-18T11:17:53.680Z,22.1
2023-04-18T11:19:09.922Z,22.5
2023-04-18T11:20:26.170Z,24
2023-04-18T11:21:42.405Z,22.6
2023-04-18T11:22:58.636Z,23.6
2023-04-18T11:25:30.134Z,23.6
2023-04-18T11:26:46.368Z,22.5
2023-04-18T11:28:02.627Z,22.4
2023-04-18T11:29:18.860Z,25.2
2023-04-18T11:30:35.098Z,24
2023-04-18T11:33:07.580Z,24.4
2023-04-18T11:34:23.805Z,24.2
2023-04-18T11:35:40.047Z,23.1
2023-04-18T11:36:56.292Z,22.9
2023-04-18T11:38:12.539Z,24
2023-04-18T11:39:28.784Z,25.4
2023-04-18T11:40:45.020Z,23.1
2023-04-18T11:42:00.279Z,24.1
2023-04-18T11:43:16.507Z,22.8
2023-04-18T11:44:32.758Z,23.2
2023-04-18T11:45:48.989Z,23.1
2023-04-18T11:47:05.238Z,25.4
2023-04-18T11:48:21.461Z,22.8
2023-04-18T11:49:37.711Z,23.9
2023-04-18T11:50:53.948Z,24.3
2023-04-18T11:52:09.222Z,24
2023-04-18T11:53:24.464Z,23.6
2023-04-18T11:55:56.943Z,24.5
2023-04-18T11:57:13.199Z,23.7
2023-04-18T11:58:29.418Z,22.2
2023-04-18T11:59:45.669Z,23.3
2023-04-18T12:01:01.916Z,23
2023-04-18T12:02:18.139Z,22.7
2023-04-18T12:03:34.395Z,22.8
2023-04-18T12:06:06.878Z,22
2023-04-18T12:07:23.119Z,22
2023-04-18T12:08:39.481Z,23.7
2023-04-18T12:11:10.995Z,21.4
2023-04-18T12:12:27.229Z,22.1
2023-04-18T12:13:43.462Z,22.6
2023-04-18T12:14:59.708Z,23.7
2023-04-18T12:16:15.941Z,22.9
2023-04-18T12:17:32.186Z,23.1
2023-04-18T12:18:48.433Z,23.4
2023-04-18T12:20:04.660Z,21.7
2023-04-18T12:21:20.908Z,21.4
2023-04-18T12:22:37.141Z,21.3
2023-04-18T12:23:52.411Z,21.3
2023-04-18T12:25:07.667Z,21.3
2023-04-18T12:26:23.901Z,21.5
2023-04-18T12:27:40.149Z,21.5
2023-04-18T12:28:56.393Z,22.7
2023-04-18T12:30:12.632Z,21.3
2023-04-18T12:31:28.857Z,21.7
2023-04-18T12:32:45.112Z,22.5
2023-04-18T12:34:01.343Z,21.6
2023-04-18T12:35:17.584Z,23.4
2023-04-18T12:36:33.835Z,22.8
2023-04-18T12:37:49.077Z,22.2
2023-04-18T12:39:05.325Z,23.5
2023-04-18T12:41:36.825Z,24.3
2023-04-18T12:42:53.052Z,24.5
2023-04-18T12:44:09.296Z,23.4
2023-04-18T12:45:25.539Z,23.5
2023-04-18T12:46:41.791Z,23.7
2023-04-18T12:47:58.011Z,23.2
2023-04-18T12:49:14.255Z,23.7
2023-04-18T12:50:30.493Z,22.4
2023-04-18T12:51:46.747Z,23.9
2023-04-18T12:53:02.977Z,21.8
2023-04-18T12:54:19.232Z,21.7
2023-04-18T12:55:35.457Z,21.6
2023-04-18T12:56:51.000Z,23.2
2023-04-18T12:58:06.968Z,23
2023-04-18T12:59:23.198Z,21.8
2023-04-18T13:00:39.435Z,22.2
2023-04-18T13:01:55.685Z,22.2
2023-04-18T13:03:11.928Z,22.1
2023-04-18T13:04:28.161Z,23.2
2023-04-18T13:05:44.406Z,23.6
2023-04-18T13:07:00.640Z,21.9
2023-04-18T13:08:16.887Z,22.3
2023-04-18T13:09:33.111Z,21.3
2023-04-18T13:10:49.366Z,22
2023-04-18T13:12:05.594Z,23.1
2023-04-18T13:13:21.838Z,21.7
2023-04-18T13:14:37.099Z,21.1
2023-04-18T13:15:53.325Z,22.3
2023-04-18T13:17:09.583Z,24.1
2023-04-18T13:19:42.066Z,24
2023-04-18T13:20:58.286Z,25.9
2023-04-18T13:22:14.529Z,22.4
2023-04-18T13:23:30.772Z,24.1
2023-04-18T13:24:47.012Z,23.2
2023-04-18T13:26:03.252Z,25.5
2023-04-18T13:27:19.505Z,23.9
2023-04-18T13:28:35.732Z,23.9
2023-04-18T13:29:51.979Z,23.3
2023-04-18T13:31:07.222Z,23.5
2023-04-18T13:32:23.466Z,23
2023-04-18T13:34:55.952Z,23.5
2023-04-18T13:37:27.462Z,22
2023-04-18T13:38:42.724Z,23
2023-04-18T13:39:57.988Z,21.9
2023-04-18T13:41:14.230Z,21.4
2023-04-18T13:42:30.452Z,21.1
2023-04-18T13:43:46.699Z,20.5
2023-04-18T13:45:02.951Z,22.3
2023-04-18T13:46:19.181Z,20.7
2023-04-18T13:47:35.414Z,22.3
2023-04-18T13:50:07.903Z,23.7
2023-04-18T13:51:24.142Z,23.6
2023-04-18T13:52:40.374Z,22.6
2023-04-18T13:53:56.617Z,22.5
2023-04-18T13:55:12.854Z,22.5
2023-04-18T13:56:28.130Z,23.3
2023-04-18T13:57:44.353Z,21.5
2023-04-18T13:59:00.606Z,22.4
2023-04-18T14:00:16.845Z,21.7
2023-04-18T14:01:33.083Z,22.9
2023-04-18T14:02:49.329Z,23.5
2023-04-18T14:04:05.557Z,22.3
2023-04-18T14:05:21.802Z,22.3
2023-04-18T14:06:37.063Z,21.6
2023-04-18T14:07:52.321Z,24.1
2023-04-18T14:09:08.558Z,23.4
2023-04-18T14:10:24.801Z,22.7
2023-04-18T14:11:41.043Z,21.8
2023-04-18T14:12:57.277Z,23.5
2023-04-18T14:14:13.516Z,22.9
2023-04-18T14:15:29.757Z,23.6
2023-04-18T14:16:46.001Z,23.9
2023-04-18T14:18:02.246Z,24.3
2023-04-18T14:20:34.714Z,26.3
2023-04-18T14:21:50.962Z,23
2023-04-18T14:23:07.188Z,24
2023-04-18T14:24:22.462Z,24.6
2023-04-18T14:25:38.702Z,23.7
2023-04-18T14:26:54.937Z,24.6
2023-04-18T14:28:11.179Z,24.7
2023-04-18T14:29:27.414Z,24.6
2023-04-18T14:30:43.660Z,24
2023-04-18T14:31:59.887Z,24.5
2023-04-18T14:33:16.136Z,26.5
2023-04-18T14:34:32.380Z,23.1
2023-04-18T14:35:48.622Z,21.5
2023-04-18T14:37:04.845Z,22.4
2023-04-18T14:38:21.103Z,23
2023-04-18T14:39:37.342Z,20.8
2023-04-18T14:40:52.600Z,22.3
2023-04-18T14:43:25.075Z,23.7
2023-04-18T14:44:41.312Z,22.4
2023-04-18T14:45:57.545Z,23
2023-04-18T14:47:13.798Z,24.1
2023-04-18T14:48:30.039Z,24
2023-04-18T14:49:46.261Z,23.8
2023-04-18T14:51:02.517Z,23.5
2023-04-18T14:52:18.761Z,22.4
2023-04-18T14:53:34.988Z,24
2023-04-18T14:54:51.231Z,23.5
2023-04-18T14:56:07.480Z,22.9
2023-04-18T14:58:39.941Z,23.1
2023-04-18T14:59:55.213Z,24.7
2023-04-18T15:01:11.447Z,24.8
2023-04-18T15:02:27.682Z,24.3
2023-04-18T15:03:43.923Z,22.9
2023-04-18T15:06:16.410Z,24.4
2023-04-18T15:07:31.669Z,25.5
2023-04-18T15:08:46.936Z,25.9
2023-04-18T15:10:03.156Z,26.3
2023-04-18T15:11:19.416Z,25.6
2023-04-18T15:13:51.890Z,24.9
2023-04-18T15:15:08.125Z,26.7
2023-04-18T15:16:24.369Z,26.1
2023-04-18T15:17:40.597Z,28.7
2023-04-18T15:18:56.848Z,27.2
2023-04-18T15:20:13.079Z,29.2
2023-04-18T15:21:29.322Z,28.5
2023-04-18T15:22:45.559Z,27.7
2023-04-18T15:24:01.795Z,26.9
2023-04-18T15:25:17.052Z,29.9
2023-04-18T15:26:33.298Z,26.8
2023-04-18T15:29:05.779Z,30.1
2023-04-18T15:30:21.049Z,28.1
2023-04-18T15:31:36.303Z,30
2023-04-18T15:32:52.540Z,30.2
2023-04-18T15:34:08.790Z,31.4
2023-04-18T15:35:25.027Z,32.2
2023-04-18T15:36:41.265Z,30.7
2023-04-18T15:37:57.500Z,32.5
2023-04-18T15:39:13.739Z,30.9
2023-04-18T15:40:29.978Z,31.9
2023-04-18T15:41:46.231Z,30.3
2023-04-18T15:43:02.467Z,29.3
2023-04-18T15:44:18.694Z,30.9
2023-04-18T15:45:33.955Z,30.8
2023-04-18T15:46:49.209Z,31.6
2023-04-18T15:48:05.458Z,33
2023-04-18T15:49:21.692Z,30
2023-04-18T15:50:37.936Z,31.4
2023-04-18T15:51:54.187Z,32.8
2023-04-18T15:54:26.665Z,32.1
2023-04-18T15:55:42.903Z,31.5
2023-04-18T15:56:59.138Z,31.6
2023-04-18T15:59:31.617Z,33
2023-04-18T16:00:47.858Z,32.7
2023-04-18T16:02:03.112Z,35.7
2023-04-18T16:03:18.380Z,32.3
2023-04-18T16:04:34.620Z,33.5
2023-04-18T16:05:50.864Z,33.4
2023-04-18T16:07:07.087Z,32.3
2023-04-18T16:08:23.345Z,35.3
2023-04-18T16:09:39.585Z,33.9
2023-04-18T16:10:55.820Z,32.8
2023-04-18T16:12:12.052Z,33.4
2023-04-18T16:14:44.532Z,31
2023-04-18T16:16:00.770Z,32.5
2023-04-18T16:17:17.029Z,30.9
2023-04-18T16:18:33.269Z,31.4
2023-04-18T16:19:49.490Z,30.2
2023-04-18T16:21:04.758Z,31
2023-04-18T16:22:21.002Z,30.9
2023-04-18T16:23:37.242Z,30.6
2023-04-18T16:24:53.479Z,30.2
2023-04-18T16:26:09.719Z,29.7
2023-04-18T16:27:25.957Z,31.1
2023-04-18T16:29:58.433Z,30.5
2023-04-18T16:31:14.677Z,31.3
2023-04-18T16:32:30.907Z,29.3
2023-04-18T16:33:47.155Z,31.2
2023-04-18T16:35:03.397Z,31
2023-04-18T16:37:35.872Z,29.2
2023-04-18T16:38:51.141Z,30.1
2023-04-18T16:40:07.374Z,31.1
2023-04-18T16:41:23.619Z,28.2
2023-04-18T16:42:39.851Z,29.6
2023-04-18T16:43:56.088Z,31
2023-04-18T16:45:12.331Z,28.1
2023-04-18T16:46:28.572Z,29.4
2023-04-18T16:47:44.817Z,28.5
2023-04-18T16:49:01.055Z,30.1
2023-04-18T16:50:17.291Z,29.4
2023-04-18T16:51:33.524Z,31.4
2023-04-18T16:52:49.771Z,31.5
2023-04-18T16:54:06.001Z,30.2
2023-04-18T16:55:21.273Z,31.8
2023-04-18T16:56:36.535Z,32
2023-04-18T16:57:52.778Z,28.7
2023-04-18T16:59:09.002Z,32.1
2023-04-18T17:00:25.239Z,29.5
2023-04-18T17:01:40.514Z,31.3
2023-04-18T17:02:56.747Z,30.6
2023-04-18T17:04:12.975Z,30.2
2023-04-18T17:05:29.230Z,31.1
2023-04-18T17:06:45.463Z,29.8
2023-04-18T17:08:01.714Z,30
2023-04-18T17:09:17.946Z,29.7
2023-04-18T17:10:34.190Z,30.4
2023-04-18T17:11:50.432Z,30.3
2023-04-18T17:13:05.693Z,31.5
2023-04-18T17:15:37.179Z,29.4
2023-04-18T17:16:53.426Z,28.9
2023-04-18T17:18:09.659Z,29.8
2023-04-18T17:19:25.912Z,30
2023-04-18T17:20:42.152Z,29.2
2023-04-18T17:23:14.617Z,29.3
2023-04-18T17:24:30.861Z,28
2023-04-18T17:25:47.110Z,29.4
2023-04-18T17:27:03.341Z,29.9
2023-04-18T17:28:19.591Z,29.4
2023-04-18T17:29:35.831Z,28.2
2023-04-18T17:30:52.071Z,29.1
2023-04-18T17:32:07.322Z,32.4
2023-04-18T17:33:23.559Z,28.5
2023-04-18T17:34:39.795Z,29.1
2023-04-18T17:35:56.040Z,29.8
2023-04-18T17:37:12.284Z,29.3
2023-04-18T17:38:28.522Z,32.1
2023-04-18T17:39:44.752Z,28.8
2023-04-18T17:41:01.003Z,30.9
2023-04-18T17:42:17.239Z,28.9
2023-04-18T17:43:33.472Z,28.3
2023-04-18T17:46:05.952Z,29.1
2023-04-18T17:47:22.211Z,28.7
2023-04-18T17:48:37.455Z,28.2
2023-04-18T17:49:53.698Z,29
2023-04-18T17:51:09.945Z,29.2
2023-04-18T17:52:26.170Z,30.9
2023-04-18T17:53:41.441Z,26.8
2023-04-18T17:54:57.688Z,28.3
2023-04-18T17:56:13.914Z,27.5
2023-04-18T17:57:30.154Z,30.8
2023-04-18T17:58:46.408Z,29.3
2023-04-18T18:00:02.630Z,28.2
2023-04-18T18:01:18.883Z,28.4
2023-04-18T18:02:35.122Z,27.8
2023-04-18T18:03:51.367Z,30.4
2023-04-18T18:05:07.608Z,30.2
2023-04-18T18:06:23.834Z,30.9
2023-04-18T18:07:40.073Z,31.7
2023-04-18T18:08:56.328Z,31.3
2023-04-18T18:10:11.575Z,30.8
2023-04-18T18:11:27.817Z,32.4
2023-04-18T18:12:44.060Z,32.3
2023-04-18T18:14:00.305Z,31.3
2023-04-18T18:16:32.778Z,33
2023-04-18T18:17:49.013Z,31.6
2023-04-18T18:19:05.254Z,31.6
2023-04-18T18:20:21.500Z,31.1
2023-04-18T18:21:37.746Z,31.4
2023-04-18T18:24:10.209Z,29.5
2023-04-18T18:25:26.464Z,28.3
2023-04-18T18:26:41.722Z,29.6
2023-04-18T18:27:57.960Z,29.4
2023-04-18T18:29:14.185Z,29.9
2023-04-18T18:30:30.478Z,30.8
2023-04-18T18:31:46.773Z,31.2
2023-04-18T18:33:03.073Z,33.1
2023-04-18T18:34:19.317Z,32.4
2023-04-18T18:35:35.562Z,30.9